Terminal Aerodrome Forecast
Issued by NWS

Home | Current Version | Previous Version | Text Only | Print | Product List | Glossary On
Versions: 1 2 3 4 5 6 7 8 9 10 11 12 13
000
FTUS41 KBTV 230520
TAFSLK
TAF
KSLK 230520Z 2306/2406 VRB03KT P6SM SKC
     FM231400 28009G16KT P6SM SKC
     FM232000 25012G23KT P6SM SCT120
     FM240100 23007KT P6SM BKN100=

USA.gov is the U.S. government's official web portal to all federal, state and local government web resources and services.